Time;durP1;ratioP1;P1;durP2;ratioP2;P2;SDS_P1;SDS_P2;PMS_P1;PMS_P2;Temp;Humidity;BMP_temperature;BMP_pressure;BME280_temperature;BME280_humidity;BME280_pressure;Samples;Min_cycle;Max_cycle;Signal;HPM_P1;HPM_P2
2023/03/13 00:00:57;;;;;;;19.53;7.70;;;7.10;99.90;;;;;;5006129;28;20483;-68
2023/03/13 00:03:25;;;;;;;19.27;7.30;;;7.10;99.90;;;;;;5003921;28;20502;-68
2023/03/13 00:05:56;;;;;;;14.57;7.70;;;7.10;99.90;;;;;;5006163;28;20476;-68
2023/03/13 00:08:24;;;;;;;20.40;8.07;;;7.10;99.90;;;;;;5006481;28;20988;-68
2023/03/13 00:10:52;;;;;;;14.60;8.37;;;7.20;99.90;;;;;;5004586;28;20552;-68
2023/03/13 00:13:21;;;;;;;24.23;7.33;;;7.20;99.90;;;;;;5004261;28;20856;-68
2023/03/13 00:15:49;;;;;;;17.33;6.60;;;7.20;99.90;;;;;;5006096;28;20477;-68
2023/03/13 00:18:17;;;;;;;16.93;7.07;;;7.20;99.90;;;;;;5006323;28;20477;-69
2023/03/13 00:20:47;;;;;;;18.27;7.50;;;7.20;99.90;;;;;;5004645;28;20478;-68
2023/03/13 00:23:15;;;;;;;17.50;6.67;;;7.20;99.90;;;;;;5005323;28;20481;-68
2023/03/13 00:25:43;;;;;;;15.83;6.60;;;7.20;99.90;;;;;;5004419;28;20483;-68
2023/03/13 00:28:11;;;;;;;19.57;6.70;;;7.20;99.90;;;;;;5003729;28;21029;-68
2023/03/13 00:30:40;;;;;;;16.50;7.60;;;7.20;99.90;;;;;;5003742;28;20523;-68
2023/03/13 00:33:08;;;;;;;17.17;6.70;;;7.20;99.90;;;;;;5003383;28;20576;-68
2023/03/13 00:35:36;;;;;;;16.60;7.00;;;7.20;99.90;;;;;;5004433;28;20483;-68
2023/03/13 00:38:04;;;;;;;13.80;6.53;;;7.20;99.90;;;;;;5005058;28;20687;-68
2023/03/13 00:40:32;;;;;;;18.37;7.30;;;7.20;99.90;;;;;;5005254;28;20492;-68
2023/03/13 00:43:00;;;;;;;16.37;7.47;;;7.30;99.90;;;;;;5004849;28;20980;-68
2023/03/13 00:45:28;;;;;;;16.17;6.40;;;7.20;99.90;;;;;;5004034;28;20488;-68
2023/03/13 00:47:57;;;;;;;18.97;7.40;;;7.20;99.90;;;;;;5004170;28;20479;-68
2023/03/13 00:50:25;;;;;;;18.43;6.97;;;7.20;99.90;;;;;;5004583;28;20499;-68
2023/03/13 00:52:53;;;;;;;16.07;7.10;;;7.30;99.90;;;;;;5005038;28;20472;-68
2023/03/13 00:55:21;;;;;;;19.97;7.70;;;7.30;99.90;;;;;;5004116;28;20469;-68
2023/03/13 00:57:49;;;;;;;19.83;7.77;;;7.30;99.90;;;;;;5004746;28;20472;-68
2023/03/13 01:00:18;;;;;;;19.43;7.43;;;7.30;99.90;;;;;;5004845;28;20551;-68
2023/03/13 01:02:46;;;;;;;17.27;7.93;;;7.30;99.90;;;;;;5004379;28;20483;-68
2023/03/13 01:05:16;;;;;;;15.80;7.43;;;7.30;99.90;;;;;;5002918;28;21040;-68
2023/03/13 01:07:43;;;;;;;21.77;8.13;;;7.30;99.90;;;;;;5004758;28;20474;-68
2023/03/13 01:10:12;;;;;;;19.90;7.53;;;7.40;99.90;;;;;;5003956;28;20875;-68
2023/03/13 01:12:40;;;;;;;17.43;7.23;;;7.40;99.90;;;;;;5003993;28;20476;-68
2023/03/13 01:15:10;;;;;;;18.53;8.27;;;7.40;99.90;;;;;;5003703;28;20460;-68
2023/03/13 01:17:38;;;;;;;23.80;8.17;;;7.40;99.90;;;;;;5004618;28;20477;-68
2023/03/13 01:20:07;;;;;;;21.63;8.40;;;7.50;99.90;;;;;;5004346;28;20504;-68
2023/03/13 01:22:36;;;;;;;16.80;7.80;;;7.50;99.90;;;;;;5002555;28;20499;-68
2023/03/13 01:25:05;;;;;;;23.07;8.80;;;7.50;99.90;;;;;;5002050;28;20493;-68
2023/03/13 01:27:33;;;;;;;26.17;8.30;;;7.60;99.90;;;;;;5004486;28;20480;-68
2023/03/13 01:30:01;;;;;;;16.87;8.00;;;7.60;99.90;;;;;;5004520;28;20491;-68
2023/03/13 01:32:29;;;;;;;19.20;8.57;;;7.60;99.90;;;;;;5003295;28;20484;-68
2023/03/13 01:34:57;;;;;;;17.10;8.53;;;7.60;99.90;;;;;;5004834;28;20554;-68
2023/03/13 01:37:25;;;;;;;22.50;8.53;;;7.60;99.90;;;;;;5004777;28;20465;-69
2023/03/13 01:39:54;;;;;;;21.00;8.40;;;7.60;99.90;;;;;;5003720;28;20500;-68
2023/03/13 01:42:22;;;;;;;19.10;8.73;;;7.70;99.90;;;;;;5003499;28;20481;-68
2023/03/13 01:44:52;;;;;;;22.20;8.33;;;7.70;99.90;;;;;;5004421;28;20492;-68
2023/03/13 01:47:20;;;;;;;24.23;9.00;;;7.70;99.90;;;;;;5005226;28;21011;-68
2023/03/13 01:49:50;;;;;;;25.03;8.30;;;7.70;99.90;;;;;;5002483;28;20501;-68
2023/03/13 01:52:23;;;;;;;19.60;8.47;;;7.80;99.90;;;;;;5002868;28;20476;-68
2023/03/13 01:54:56;;;;;;;22.63;9.80;;;7.80;99.90;;;;;;5003178;28;20476;-68
2023/03/13 01:57:29;;;;;;;14.70;7.00;;;7.80;99.90;;;;;;5002713;28;20491;-68
2023/03/13 02:00:01;;;;;;;23.40;8.83;;;7.80;99.90;;;;;;5003738;28;21029;-68
2023/03/13 02:02:30;;;;;;;20.03;8.30;;;7.80;99.90;;;;;;5002886;28;20493;-68
2023/03/13 02:05:02;;;;;;;15.97;7.80;;;7.80;99.90;;;;;;5004587;28;20504;-68
2023/03/13 02:07:38;;;;;;;20.40;8.07;;;7.80;99.90;;;;;;5002532;28;21236;-68
2023/03/13 02:10:10;;;;;;;18.93;7.03;;;7.80;99.90;;;;;;5003488;28;20507;-68
2023/03/13 02:12:39;;;;;;;19.57;8.37;;;7.80;99.90;;;;;;5001486;28;20476;-68
2023/03/13 02:15:11;;;;;;;20.67;7.77;;;7.80;99.90;;;;;;5003525;28;20483;-68
2023/03/13 02:17:40;;;;;;;23.50;8.47;;;7.80;99.90;;;;;;5004683;28;20472;-68
2023/03/13 02:20:10;;;;;;;16.70;6.80;;;7.80;99.90;;;;;;5004727;28;20499;-69
2023/03/13 02:22:44;;;;;;;16.93;7.50;;;7.80;99.90;;;;;;5002219;28;20502;-68
2023/03/13 02:25:22;;;;;;;17.90;7.63;;;7.80;99.90;;;;;;5003299;28;20873;-69
2023/03/13 02:27:54;;;;;;;18.33;7.63;;;7.80;99.90;;;;;;5004010;28;20471;-68
2023/03/13 02:30:23;;;;;;;17.13;7.10;;;7.90;99.90;;;;;;5007808;28;20865;-67
2023/03/13 02:32:51;;;;;;;18.83;7.80;;;7.90;99.90;;;;;;5006563;28;20958;-68
2023/03/13 02:35:21;;;;;;;16.30;6.87;;;7.90;99.90;;;;;;5009055;28;20884;-68
2023/03/13 02:37:52;;;;;;;19.13;7.30;;;7.90;99.90;;;;;;5008219;28;20962;-68
2023/03/13 02:40:25;;;;;;;17.80;6.97;;;7.90;99.90;;;;;;5008211;28;20905;-68
2023/03/13 02:42:56;;;;;;;15.83;6.60;;;8.00;99.90;;;;;;5004761;28;20975;-68
2023/03/13 02:45:24;;;;;;;15.30;6.60;;;8.00;99.90;;;;;;5007943;28;20489;-68
2023/03/13 02:47:51;;;;;;;16.87;7.27;;;8.00;99.90;;;;;;5007155;28;20483;-68
2023/03/13 02:50:20;;;;;;;13.03;6.13;;;7.90;99.90;;;;;;5009011;28;20496;-68
2023/03/13 02:52:50;;;;;;;19.60;6.57;;;7.90;99.90;;;;;;4986778;28;20488;-68
2023/03/13 02:55:24;;;;;;;15.10;6.73;;;7.90;99.90;;;;;;4989577;28;20465;-68
2023/03/13 02:57:52;;;;;;;16.80;6.00;;;8.00;99.90;;;;;;4988898;28;20480;-68
2023/03/13 03:00:25;;;;;;;14.50;6.13;;;8.00;99.90;;;;;;4988603;28;20493;-68
2023/03/13 03:02:54;;;;;;;20.33;6.80;;;8.00;99.90;;;;;;5006102;28;20472;-68
2023/03/13 03:05:22;;;;;;;19.60;7.50;;;7.90;99.90;;;;;;5007888;28;20590;-68
2023/03/13 03:07:51;;;;;;;15.07;6.67;;;7.90;99.90;;;;;;5005575;28;20997;-69
2023/03/13 03:10:19;;;;;;;10.33;5.60;;;7.90;99.90;;;;;;5007466;28;20497;-68
2023/03/13 03:12:47;;;;;;;16.43;6.13;;;7.90;99.90;;;;;;5006850;28;20470;-68
2023/03/13 03:15:15;;;;;;;13.57;7.03;;;7.90;99.90;;;;;;5006073;28;20464;-68
2023/03/13 03:17:44;;;;;;;12.57;6.17;;;8.00;99.90;;;;;;5006532;28;20475;-68
2023/03/13 03:20:12;;;;;;;21.87;6.30;;;8.00;99.90;;;;;;5006901;28;21007;-68
2023/03/13 03:22:40;;;;;;;12.30;5.20;;;8.00;99.90;;;;;;4986412;28;20488;-68
2023/03/13 03:25:09;;;;;;;17.90;5.50;;;8.00;99.90;;;;;;4985429;28;20532;-68
2023/03/13 03:27:37;;;;;;;17.70;6.27;;;8.00;99.90;;;;;;4984974;28;20476;-68
2023/03/13 03:30:06;;;;;;;15.43;6.37;;;8.00;99.90;;;;;;4986848;28;20494;-68
2023/03/13 03:32:34;;;;;;;16.17;5.50;;;8.00;99.90;;;;;;4985163;28;20465;-69
2023/03/13 03:35:04;;;;;;;20.23;6.30;;;8.00;99.90;;;;;;4986105;28;20478;-70
2023/03/13 03:37:32;;;;;;;20.30;6.50;;;8.00;99.90;;;;;;4986301;28;20528;-68
2023/03/13 03:40:00;;;;;;;15.70;5.53;;;8.00;99.90;;;;;;4985807;28;20497;-68
2023/03/13 03:42:28;;;;;;;13.00;5.77;;;8.00;99.90;;;;;;4983312;28;20480;-68
2023/03/13 03:44:56;;;;;;;14.47;6.20;;;8.00;99.90;;;;;;4986373;28;20475;-68
2023/03/13 03:47:24;;;;;;;18.53;6.30;;;8.00;99.90;;;;;;4986668;28;20483;-68
2023/03/13 03:49:52;;;;;;;15.07;5.37;;;8.00;99.90;;;;;;4980181;28;20501;-68
2023/03/13 03:52:22;;;;;;;16.30;5.70;;;8.00;99.90;;;;;;4985426;28;21005;-66
2023/03/13 03:54:49;;;;;;;16.17;5.93;;;8.00;99.90;;;;;;4986281;28;20488;-66
2023/03/13 03:57:17;;;;;;;14.23;5.40;;;8.00;99.90;;;;;;4982617;28;21093;-66
2023/03/13 03:59:45;;;;;;;13.00;5.80;;;8.00;99.90;;;;;;4985056;28;20497;-66
2023/03/13 04:02:13;;;;;;;23.23;6.33;;;8.00;99.90;;;;;;4983839;28;20870;-66
2023/03/13 04:04:41;;;;;;;15.53;5.60;;;8.00;99.90;;;;;;4985918;28;20474;-66
2023/03/13 04:07:09;;;;;;;22.23;7.20;;;8.00;99.90;;;;;;4983818;28;20791;-66
2023/03/13 04:09:39;;;;;;;13.80;6.20;;;8.00;99.90;;;;;;4984148;28;20485;-67
2023/03/13 04:12:07;;;;;;;16.40;6.10;;;7.90;99.90;;;;;;4984436;28;20494;-67
2023/03/13 04:14:35;;;;;;;13.27;5.80;;;7.90;99.90;;;;;;4985385;28;20465;-67
2023/03/13 04:17:03;;;;;;;11.90;5.53;;;7.90;99.90;;;;;;4984876;28;21075;-67
2023/03/13 04:19:31;;;;;;;15.80;6.93;;;7.90;99.90;;;;;;4979469;28;20935;-67
2023/03/13 04:21:59;;;;;;;15.43;6.40;;;8.00;99.90;;;;;;4982532;28;20525;-67
2023/03/13 04:24:27;;;;;;;12.33;5.70;;;7.90;99.90;;;;;;4984985;28;20461;-67
2023/03/13 04:26:57;;;;;;;14.90;5.33;;;7.90;99.90;;;;;;4984153;28;20497;-67
2023/03/13 04:29:25;;;;;;;16.50;6.33;;;8.00;99.90;;;;;;4982150;28;20874;-67
2023/03/13 04:31:53;;;;;;;12.07;6.43;;;8.00;99.90;;;;;;4983536;28;20500;-67
2023/03/13 04:34:21;;;;;;;18.97;6.57;;;8.00;99.90;;;;;;4982939;28;20466;-67
2023/03/13 04:36:49;;;;;;;17.20;6.40;;;8.00;99.90;;;;;;4984585;28;20470;-66
2023/03/13 04:39:17;;;;;;;15.13;6.43;;;8.00;99.90;;;;;;4984331;28;20505;-67
2023/03/13 04:41:45;;;;;;;13.00;6.23;;;8.00;99.90;;;;;;4983070;28;20484;-67
2023/03/13 04:44:14;;;;;;;13.63;5.90;;;7.90;99.90;;;;;;4983725;28;20477;-67
2023/03/13 04:46:42;;;;;;;13.03;5.83;;;7.90;99.90;;;;;;4983271;28;20489;-67
2023/03/13 04:49:10;;;;;;;15.13;5.40;;;7.90;99.90;;;;;;4980614;28;20493;-68
2023/03/13 04:51:38;;;;;;;16.17;5.30;;;7.90;99.90;;;;;;4981390;28;20515;-67
2023/03/13 04:54:06;;;;;;;19.60;5.63;;;7.80;99.90;;;;;;4983863;28;20487;-67
2023/03/13 04:56:34;;;;;;;15.20;5.50;;;7.80;99.90;;;;;;4983081;28;20469;-67
2023/03/13 04:59:11;;;;;;;13.43;5.60;;;7.80;99.90;;;;;;4982829;28;20493;-67
2023/03/13 05:01:42;;;;;;;16.93;5.80;;;7.80;99.90;;;;;;4983935;28;20477;-67
2023/03/13 05:04:10;;;;;;;12.20;5.40;;;7.80;99.90;;;;;;4984060;28;20469;-67
2023/03/13 05:06:38;;;;;;;13.13;5.93;;;7.80;99.90;;;;;;4983867;28;20485;-67
2023/03/13 05:09:06;;;;;;;19.60;6.50;;;7.80;99.90;;;;;;4983384;28;20759;-67
2023/03/13 05:11:34;;;;;;;13.50;5.77;;;7.80;99.90;;;;;;4983033;28;20490;-67
2023/03/13 05:14:03;;;;;;;16.77;6.43;;;7.80;99.90;;;;;;4981924;28;20481;-67
2023/03/13 05:16:31;;;;;;;11.13;5.53;;;7.80;99.90;;;;;;4982920;28;20480;-67
2023/03/13 05:19:00;;;;;;;18.10;7.77;;;7.80;99.90;;;;;;4984171;28;20492;-68
2023/03/13 05:21:28;;;;;;;12.30;5.37;;;7.80;99.90;;;;;;4984020;28;20478;-68
2023/03/13 05:23:56;;;;;;;14.20;5.20;;;7.80;99.90;;;;;;4984251;28;20861;-68
2023/03/13 05:26:24;;;;;;;13.27;5.73;;;7.80;99.90;;;;;;4977952;28;20493;-68
2023/03/13 05:28:52;;;;;;;11.53;6.13;;;7.80;99.90;;;;;;4984217;28;20507;-68
2023/03/13 05:31:20;;;;;;;12.60;5.73;;;7.80;99.90;;;;;;4980978;28;20509;-68
2023/03/13 05:33:48;;;;;;;14.30;5.40;;;7.80;99.90;;;;;;4981833;28;20474;-68
2023/03/13 05:36:18;;;;;;;11.87;5.20;;;7.80;99.90;;;;;;4984066;28;20478;-68
2023/03/13 05:38:46;;;;;;;12.10;5.40;;;7.80;99.90;;;;;;4982851;28;20489;-67
2023/03/13 05:41:14;;;;;;;11.73;5.93;;;7.80;99.90;;;;;;4982022;28;20473;-68
2023/03/13 05:43:42;;;;;;;14.30;5.90;;;7.80;99.90;;;;;;4978751;28;21044;-68
2023/03/13 05:46:10;;;;;;;13.47;4.90;;;7.80;99.90;;;;;;4981597;28;20476;-68
2023/03/13 05:48:38;;;;;;;11.93;5.30;;;7.80;99.90;;;;;;4984215;28;20538;-68
2023/03/13 05:51:06;;;;;;;6.80;4.53;;;7.80;99.90;;;;;;4982872;28;20477;-68
2023/03/13 05:53:35;;;;;;;14.00;5.33;;;7.80;99.90;;;;;;4983778;28;20468;-68
2023/03/13 05:56:03;;;;;;;10.50;4.90;;;7.90;99.90;;;;;;4983029;28;20469;-68
2023/03/13 05:58:31;;;;;;;9.70;4.50;;;7.80;99.90;;;;;;4983552;28;20470;-68
2023/03/13 06:00:59;;;;;;;12.37;4.40;;;7.80;99.90;;;;;;4984432;28;20493;-68
2023/03/13 06:03:27;;;;;;;5.30;3.43;;;7.90;99.90;;;;;;4983138;28;20473;-68
2023/03/13 06:05:58;;;;;;;6.77;3.80;;;7.80;99.90;;;;;;4985592;28;20468;-68
2023/03/13 06:08:26;;;;;;;8.93;4.00;;;7.90;99.90;;;;;;4981290;28;21112;-67
2023/03/13 06:10:59;;;;;;;8.40;3.87;;;7.90;99.90;;;;;;4981370;28;20484;-68
2023/03/13 06:13:27;;;;;;;6.50;3.00;;;7.90;99.90;;;;;;4981797;28;20477;-68
2023/03/13 06:15:57;;;;;;;7.80;3.47;;;7.90;99.90;;;;;;4980866;28;20481;-68
2023/03/13 06:18:26;;;;;;;5.57;3.60;;;8.00;99.90;;;;;;4980919;28;20476;-68
2023/03/13 06:20:57;;;;;;;5.30;3.50;;;8.00;99.90;;;;;;4981304;28;20542;-68
2023/03/13 06:23:25;;;;;;;6.70;3.77;;;8.10;99.90;;;;;;4981863;28;20474;-68
2023/03/13 06:25:55;;;;;;;7.00;3.47;;;8.10;99.90;;;;;;4981302;28;20473;-68
2023/03/13 06:28:23;;;;;;;4.60;3.33;;;8.10;99.90;;;;;;4982579;28;20820;-67
2023/03/13 06:30:51;;;;;;;5.80;2.97;;;8.10;99.90;;;;;;4982667;28;20532;-67
2023/03/13 06:33:19;;;;;;;4.43;2.90;;;8.10;99.90;;;;;;4982608;28;20473;-68
2023/03/13 06:35:47;;;;;;;4.33;2.77;;;8.20;99.90;;;;;;4981398;28;20541;-67
2023/03/13 06:38:24;;;;;;;3.13;2.73;;;8.20;99.90;;;;;;4982445;28;20481;-68
2023/03/13 06:40:52;;;;;;;4.77;2.63;;;8.20;99.90;;;;;;4981484;28;20593;-67
2023/03/13 06:43:21;;;;;;;1.97;1.67;;;8.20;99.90;;;;;;4981684;28;20469;-67
2023/03/13 06:45:50;;;;;;;2.73;1.90;;;8.30;99.90;;;;;;4981115;28;20480;-68
2023/03/13 06:48:18;;;;;;;2.70;1.93;;;8.40;99.90;;;;;;4979520;28;20500;-67
2023/03/13 06:50:46;;;;;;;4.63;1.90;;;8.40;99.90;;;;;;4979740;28;20507;-68
2023/03/13 06:53:16;;;;;;;3.20;2.00;;;8.50;99.90;;;;;;4981457;28;20484;-68
2023/03/13 06:55:45;;;;;;;3.73;2.13;;;8.60;99.90;;;;;;4980408;28;20561;-68
2023/03/13 06:58:13;;;;;;;2.47;1.83;;;8.60;99.90;;;;;;4974155;28;20470;-68
2023/03/13 07:00:59;;;;;;;3.00;1.80;;;8.70;99.90;;;;;;4978987;28;20492;-67
2023/03/13 07:03:27;;;;;;;2.73;2.30;;;8.80;99.90;;;;;;4981075;28;20480;-68
2023/03/13 07:05:58;;;;;;;1.90;1.80;;;8.80;99.90;;;;;;4980331;28;20469;-69
2023/03/13 07:08:27;;;;;;;2.63;2.17;;;8.90;99.90;;;;;;4980471;28;20497;-68
2023/03/13 07:10:59;;;;;;;3.73;2.43;;;9.00;99.90;;;;;;4979643;28;20487;-68
2023/03/13 07:13:27;;;;;;;2.83;2.37;;;9.00;99.90;;;;;;4978969;28;20482;-67
2023/03/13 07:15:55;;;;;;;4.20;2.40;;;9.10;99.90;;;;;;4983160;28;20994;-68
2023/03/13 07:18:25;;;;;;;3.53;2.40;;;9.10;99.90;;;;;;4982260;28;20579;-68
2023/03/13 07:20:54;;;;;;;3.10;2.30;;;9.10;99.90;;;;;;4982540;28;20488;-68
2023/03/13 07:23:22;;;;;;;3.80;2.80;;;9.10;99.90;;;;;;4983003;28;20473;-68
2023/03/13 07:25:54;;;;;;;3.03;2.83;;;9.10;99.90;;;;;;4982059;28;20474;-68
2023/03/13 07:28:22;;;;;;;5.13;3.90;;;9.10;99.90;;;;;;4977306;28;20497;-68
2023/03/13 07:30:50;;;;;;;3.03;2.80;;;9.10;99.90;;;;;;4982427;28;21085;-68
2023/03/13 07:33:19;;;;;;;4.50;3.00;;;9.20;99.90;;;;;;4978927;28;20469;-68
2023/03/13 07:35:52;;;;;;;3.50;2.93;;;9.20;99.90;;;;;;4982894;28;20484;-67
2023/03/13 07:38:20;;;;;;;7.50;3.50;;;9.20;99.90;;;;;;4981616;28;20480;-68
2023/03/13 07:40:49;;;;;;;4.93;3.07;;;9.20;99.90;;;;;;4982031;28;20492;-67
2023/03/13 07:43:18;;;;;;;4.10;3.10;;;9.30;99.90;;;;;;4982385;28;21050;-67
2023/03/13 07:45:54;;;;;;;5.40;3.17;;;9.30;99.90;;;;;;4981184;28;20465;-67
2023/03/13 07:48:23;;;;;;;4.10;3.63;;;9.30;99.90;;;;;;4981244;28;20493;-67
2023/03/13 07:50:55;;;;;;;4.10;3.80;;;9.40;99.90;;;;;;4982691;28;20485;-68
2023/03/13 07:53:24;;;;;;;4.03;3.63;;;9.40;99.90;;;;;;4982585;28;20479;-67
2023/03/13 07:55:53;;;;;;;6.90;3.47;;;9.40;99.90;;;;;;4984361;28;20477;-67
2023/03/13 07:58:21;;;;;;;4.43;4.03;;;9.50;99.90;;;;;;4978128;28;20484;-67
2023/03/13 08:00:49;;;;;;;5.50;4.37;;;9.50;99.90;;;;;;4982879;28;20489;-67
2023/03/13 08:03:18;;;;;;;5.17;4.03;;;9.60;99.90;;;;;;4984233;28;20482;-67
2023/03/13 08:05:46;;;;;;;4.20;3.90;;;9.60;99.90;;;;;;4984960;28;20483;-67
2023/03/13 08:08:15;;;;;;;7.40;4.03;;;9.70;99.90;;;;;;4983395;28;20492;-67
2023/03/13 08:10:43;;;;;;;5.00;4.47;;;9.80;99.90;;;;;;4983056;28;20485;-67
2023/03/13 08:13:12;;;;;;;5.43;4.50;;;9.80;99.90;;;;;;4982861;28;20504;-67
2023/03/13 08:15:40;;;;;;;4.60;4.20;;;9.80;99.90;;;;;;4976349;28;20568;-67
2023/03/13 08:18:08;;;;;;;4.80;4.30;;;9.90;99.90;;;;;;4980329;28;20536;-67
2023/03/13 08:20:36;;;;;;;5.03;4.53;;;9.90;99.90;;;;;;4982825;28;20494;-68
2023/03/13 08:23:03;;;;;;;4.90;4.27;;;10.00;99.90;;;;;;4980745;28;20480;-68
2023/03/13 08:25:33;;;;;;;5.70;4.97;;;10.00;99.90;;;;;;4981894;28;21023;-67
2023/03/13 08:28:01;;;;;;;4.97;4.57;;;10.10;99.90;;;;;;4982474;28;20879;-67
2023/03/13 08:30:29;;;;;;;5.00;4.50;;;10.10;99.90;;;;;;4982328;28;20489;-67
2023/03/13 08:32:57;;;;;;;4.57;4.17;;;10.20;99.90;;;;;;4983366;28;20500;-67
2023/03/13 08:35:25;;;;;;;5.17;4.67;;;10.20;99.90;;;;;;4980717;28;20477;-67
2023/03/13 08:37:53;;;;;;;5.10;4.60;;;10.30;99.90;;;;;;4982863;28;20870;-67
2023/03/13 08:40:21;;;;;;;5.80;4.63;;;10.30;99.90;;;;;;4980596;28;21044;-67
2023/03/13 08:42:50;;;;;;;5.07;4.37;;;10.40;99.90;;;;;;4982002;28;20473;-67
2023/03/13 08:45:18;;;;;;;4.27;3.97;;;10.40;99.90;;;;;;4978384;28;20480;-68
2023/03/13 08:47:46;;;;;;;4.10;3.70;;;10.40;99.90;;;;;;4982219;28;20481;-67
2023/03/13 08:50:14;;;;;;;4.87;4.37;;;10.50;99.90;;;;;;4982826;28;20489;-68
2023/03/13 08:52:44;;;;;;;4.77;4.13;;;10.50;99.90;;;;;;4981095;28;20481;-68
2023/03/13 08:55:12;;;;;;;5.10;4.50;;;10.50;99.90;;;;;;4981821;28;20893;-68
2023/03/13 08:57:40;;;;;;;4.87;4.43;;;10.60;99.90;;;;;;4982244;28;20477;-67
2023/03/13 09:00:12;;;;;;;7.70;4.83;;;10.60;99.90;;;;;;4978145;28;20568;-68
2023/03/13 09:02:40;;;;;;;5.40;4.90;;;10.60;99.90;;;;;;4981629;28;20508;-67
2023/03/13 09:05:08;;;;;;;5.93;5.07;;;10.70;99.90;;;;;;4978908;28;20985;-68
2023/03/13 09:07:37;;;;;;;6.00;5.40;;;10.80;99.90;;;;;;4981365;28;20576;-68
2023/03/13 09:10:06;;;;;;;6.10;5.50;;;10.80;99.90;;;;;;4977306;28;20532;-68
2023/03/13 09:12:34;;;;;;;6.53;5.83;;;10.90;99.90;;;;;;4978827;28;20571;-68
2023/03/13 09:15:02;;;;;;;5.73;5.23;;;10.90;99.90;;;;;;4982755;28;20488;-68
2023/03/13 09:17:31;;;;;;;6.20;5.60;;;11.00;99.90;;;;;;4980065;28;20473;-68
2023/03/13 09:19:59;;;;;;;6.30;5.70;;;11.00;99.90;;;;;;4981310;28;20490;-69
2023/03/13 09:22:28;;;;;;;6.17;5.20;;;11.10;99.90;;;;;;4981520;28;20484;-68
2023/03/13 09:24:56;;;;;;;7.33;6.60;;;11.20;99.90;;;;;;4982668;28;20477;-68
2023/03/13 09:27:24;;;;;;;6.70;6.00;;;11.20;99.90;;;;;;4981616;28;20478;-68
2023/03/13 09:29:52;;;;;;;6.70;6.00;;;11.20;99.90;;;;;;4981874;28;20925;-68
2023/03/13 09:32:20;;;;;;;6.80;5.57;;;11.30;99.90;;;;;;4981290;28;20499;-69
2023/03/13 09:34:49;;;;;;;7.20;5.97;;;11.30;99.90;;;;;;4981885;28;20478;-69
2023/03/13 09:37:17;;;;;;;6.73;6.03;;;11.30;99.90;;;;;;4983259;28;20484;-68
2023/03/13 09:39:45;;;;;;;6.53;5.30;;;11.40;99.90;;;;;;4981896;28;20492;-68
2023/03/13 09:42:18;;;;;;;6.13;5.60;;;11.40;99.90;;;;;;4979649;28;20497;-68
2023/03/13 09:44:50;;;;;;;6.63;6.03;;;11.50;99.90;;;;;;4981909;28;20473;-69
2023/03/13 09:47:23;;;;;;;6.80;6.07;;;11.50;99.90;;;;;;4982233;28;20477;-67
2023/03/13 09:49:56;;;;;;;6.90;6.30;;;11.50;99.90;;;;;;4981656;28;20587;-68
2023/03/13 09:52:26;;;;;;;6.80;6.10;;;11.60;99.90;;;;;;4981061;28;20861;-67
2023/03/13 09:54:59;;;;;;;6.80;5.97;;;11.60;99.90;;;;;;4982821;28;20479;-68
2023/03/13 09:57:33;;;;;;;6.20;5.60;;;11.60;99.90;;;;;;4980090;28;20493;-68
2023/03/13 10:00:07;;;;;;;6.43;5.83;;;11.70;99.90;;;;;;4982084;28;20485;-68
2023/03/13 10:02:36;;;;;;;8.63;6.60;;;11.80;99.90;;;;;;4981083;28;20500;-68
2023/03/13 10:05:15;;;;;;;7.90;6.00;;;11.80;99.90;;;;;;4982393;28;20469;-68
2023/03/13 10:07:43;;;;;;;7.20;6.03;;;11.80;99.90;;;;;;4981346;28;20695;-68
2023/03/13 10:10:15;;;;;;;7.20;6.50;;;11.80;99.90;;;;;;4980272;28;21056;-68
2023/03/13 10:12:46;;;;;;;6.50;5.90;;;11.80;99.90;;;;;;4980243;28;20497;-68
2023/03/13 10:15:34;;;;;;;7.67;5.70;;;11.80;99.90;;;;;;4978132;28;20470;-68
2023/03/13 10:18:13;;;;;;;6.60;5.90;;;11.80;99.90;;;;;;4982577;28;20473;-68
2023/03/13 10:20:43;;;;;;;7.47;6.77;;;11.80;99.90;;;;;;4980093;28;20500;-68
2023/03/13 10:23:16;;;;;;;7.03;6.27;;;11.90;99.90;;;;;;4982556;28;20941;-68
2023/03/13 10:25:44;;;;;;;6.57;5.97;;;11.90;99.90;;;;;;4978069;28;20476;-68
2023/03/13 10:28:13;;;;;;;8.23;6.40;;;11.90;99.90;;;;;;4980783;28;20476;-68
2023/03/13 10:30:47;;;;;;;6.20;5.60;;;12.00;99.90;;;;;;4979726;28;20485;-68
2023/03/13 10:33:24;;;;;;;6.73;6.00;;;12.00;99.90;;;;;;4980762;28;20469;-68
2023/03/13 10:36:03;;;;;;;6.03;5.43;;;12.10;99.90;;;;;;4981185;28;20503;-68
2023/03/13 10:38:34;;;;;;;6.43;5.80;;;12.10;99.90;;;;;;4981123;28;20555;-67
2023/03/13 10:41:09;;;;;;;6.60;5.90;;;12.30;99.90;;;;;;4978478;28;20638;-68
2023/03/13 10:43:50;;;;;;;5.37;4.90;;;12.50;99.90;;;;;;4981352;28;20468;-68
2023/03/13 10:46:25;;;;;;;5.87;5.37;;;12.60;99.90;;;;;;4981678;28;20473;-68
2023/03/13 10:48:55;;;;;;;6.13;5.50;;;12.80;99.90;;;;;;4979085;28;20566;-68
2023/03/13 10:51:30;;;;;;;5.50;4.90;;;12.90;99.90;;;;;;4980763;28;20490;-68
2023/03/13 10:53:58;;;;;;;5.20;4.70;;;13.10;99.90;;;;;;4985181;28;20468;-68
2023/03/13 10:56:30;;;;;;;5.23;4.73;;;13.20;99.90;;;;;;4983524;28;20822;-68
2023/03/13 10:58:58;;;;;;;7.20;5.17;;;13.20;99.90;;;;;;4978990;28;20500;-68
2023/03/13 11:01:30;;;;;;;5.60;4.83;;;13.20;99.90;;;;;;4984843;28;20469;-68
2023/03/13 11:03:59;;;;;;;5.33;4.90;;;13.10;99.90;;;;;;4983872;28;20509;-68
2023/03/13 11:06:30;;;;;;;6.00;5.33;;;13.10;99.90;;;;;;4985886;28;20465;-67
2023/03/13 11:09:01;;;;;;;5.53;5.00;;;13.00;99.90;;;;;;4984748;28;20493;-67
2023/03/13 11:11:30;;;;;;;5.47;5.07;;;13.00;99.90;;;;;;4985026;28;20482;-68
2023/03/13 11:14:09;;;;;;;7.00;5.57;;;12.90;99.90;;;;;;4985644;28;20477;-67
2023/03/13 11:16:45;;;;;;;5.80;5.40;;;12.90;99.90;;;;;;4983467;28;20492;-68
2023/03/13 11:19:34;;;;;;;5.60;4.90;;;12.90;99.90;;;;;;4985389;28;20546;-67
2023/03/13 11:22:20;;;;;;;6.30;4.87;;;12.90;99.90;;;;;;4983938;28;20485;-68
2023/03/13 11:24:55;;;;;;;5.53;5.10;;;13.10;99.90;;;;;;4984953;28;20475;-68
2023/03/13 11:27:29;;;;;;;6.20;5.00;;;13.30;99.90;;;;;;4986699;28;20465;-68
2023/03/13 11:30:19;;;;;;;4.40;4.00;;;13.60;99.90;;;;;;4986004;28;20517;-68
2023/03/13 11:32:52;;;;;;;4.40;4.00;;;13.90;99.90;;;;;;4984371;28;20481;-67
2023/03/13 11:35:44;;;;;;;4.60;3.53;;;14.10;99.90;;;;;;4986286;28;20480;-67
2023/03/13 11:38:20;;;;;;;3.90;3.60;;;14.30;99.90;;;;;;4985757;28;20579;-67
2023/03/13 11:40:54;;;;;;;3.73;3.23;;;14.50;99.90;;;;;;4985734;28;20481;-68
2023/03/13 11:43:40;;;;;;;3.10;2.80;;;14.60;99.90;;;;;;4983978;28;20473;-68
2023/03/13 11:46:22;;;;;;;3.90;3.00;;;14.80;99.90;;;;;;4984404;28;20476;-67
2023/03/13 11:49:32;;;;;;;4.00;2.40;;;15.00;99.90;;;;;;4983790;28;20486;-66
2023/03/13 11:52:11;;;;;;;3.63;2.43;;;15.00;99.90;;;;;;4979326;28;20508;-67
2023/03/13 11:54:57;;;;;;;2.50;2.30;;;15.10;99.90;;;;;;4983813;28;20481;-67
2023/03/13 11:57:29;;;;;;;3.27;2.50;;;15.20;99.90;;;;;;4983821;28;20473;-67
2023/03/13 12:00:17;;;;;;;3.30;2.73;;;15.30;99.90;;;;;;4983174;28;20553;-67
2023/03/13 12:02:50;;;;;;;3.17;2.87;;;15.50;99.90;;;;;;4982814;28;20478;-67
2023/03/13 12:05:19;;;;;;;2.60;2.40;;;15.70;99.90;;;;;;4983345;28;20914;-67
2023/03/13 12:07:54;;;;;;;3.73;2.10;;;15.80;99.90;;;;;;4984979;28;20493;-68
2023/03/13 12:10:29;;;;;;;2.87;2.20;;;16.00;99.90;;;;;;4983183;28;20492;-67
2023/03/13 12:13:04;;;;;;;3.20;2.40;;;16.00;99.90;;;;;;4982827;28;20481;-67
2023/03/13 12:15:37;;;;;;;3.43;3.13;;;15.90;99.90;;;;;;4983843;28;21163;-67
2023/03/13 12:18:12;;;;;;;4.80;2.80;;;15.90;99.90;;;;;;4983054;28;20900;-67
2023/03/13 12:20:46;;;;;;;3.60;2.70;;;15.90;99.90;;;;;;4982705;28;21005;-67
2023/03/13 12:23:19;;;;;;;3.50;2.40;;;16.10;99.90;;;;;;4982768;28;21416;-68
2023/03/13 12:25:52;;;;;;;2.67;2.30;;;16.20;99.90;;;;;;4983515;28;20465;-67
2023/03/13 12:28:31;;;;;;;2.97;2.30;;;16.30;99.90;;;;;;4983413;28;20982;-68
2023/03/13 12:31:09;;;;;;;2.87;2.37;;;16.30;99.90;;;;;;4981438;28;20497;-68
2023/03/13 12:33:43;;;;;;;3.80;2.40;;;16.30;99.90;;;;;;4983795;28;20563;-68
2023/03/13 12:36:17;;;;;;;3.00;2.60;;;16.20;99.90;;;;;;4982906;28;20470;-67
2023/03/13 12:38:52;;;;;;;2.80;2.50;;;16.00;99.90;;;;;;4982942;28;20548;-67
2023/03/13 12:41:25;;;;;;;3.17;2.57;;;15.90;99.90;;;;;;4982904;28;20492;-68
2023/03/13 12:43:54;;;;;;;3.43;2.73;;;15.70;99.90;;;;;;4983336;28;20567;-68
2023/03/13 12:47:07;;;;;;;2.60;2.40;;;15.50;99.90;;;;;;4983549;28;20964;-68
2023/03/13 12:50:01;;;;;;;3.10;2.80;;;15.40;99.90;;;;;;4985178;28;20489;-68
2023/03/13 12:53:05;;;;;;;2.73;2.53;;;16.00;99.90;;;;;;4980432;28;20488;-69
2023/03/13 12:56:02;;;;;;;2.33;2.10;;;16.60;99.90;;;;;;4980861;28;20480;-69
2023/03/13 12:58:40;;;;;;;2.73;2.40;;;16.60;99.90;;;;;;4982327;28;20473;-69
2023/03/13 13:01:16;;;;;;;2.23;2.03;;;16.70;99.90;;;;;;4982632;28;20489;-69
2023/03/13 13:03:52;;;;;;;2.33;1.77;;;18.50;99.90;;;;;;4984494;28;20887;-69
2023/03/13 13:06:20;;;;;;;3.60;1.97;;;19.10;99.90;;;;;;4982606;28;20472;-69